sensor_id;sensor_type;location;lat;lon;timestamp;P1;durP1;ratioP1;P2;durP2;ratioP2
75362;SDS011;64122;51.988;5.892;2023-11-21T00:00:24;19.67;;;10.75;;
75362;SDS011;64122;51.988;5.892;2023-11-21T00:02:56;28.17;;;11.60;;
75362;SDS011;64122;51.988;5.892;2023-11-21T00:05:26;27.67;;;10.70;;
75362;SDS011;64122;51.988;5.892;2023-11-21T00:07:55;23.15;;;10.18;;
75362;SDS011;64122;51.988;5.892;2023-11-21T00:10:24;25.15;;;11.02;;
75362;SDS011;64122;51.988;5.892;2023-11-21T00:12:54;20.90;;;10.65;;
75362;SDS011;64122;51.988;5.892;2023-11-21T00:15:23;26.35;;;11.20;;
75362;SDS011;64122;51.988;5.892;2023-11-21T00:17:52;28.95;;;14.07;;
75362;SDS011;64122;51.988;5.892;2023-11-21T00:20:24;24.60;;;10.70;;
75362;SDS011;64122;51.988;5.892;2023-11-21T00:22:53;22.17;;;10.10;;
75362;SDS011;64122;51.988;5.892;2023-11-21T00:25:23;23.27;;;11.02;;
75362;SDS011;64122;51.988;5.892;2023-11-21T00:27:52;26.20;;;11.82;;
75362;SDS011;64122;51.988;5.892;2023-11-21T00:30:21;27.58;;;11.40;;
75362;SDS011;64122;51.988;5.892;2023-11-21T00:32:50;21.55;;;10.20;;
75362;SDS011;64122;51.988;5.892;2023-11-21T00:35:22;23.33;;;10.45;;
75362;SDS011;64122;51.988;5.892;2023-11-21T00:37:52;21.17;;;9.95;;
75362;SDS011;64122;51.988;5.892;2023-11-21T00:40:21;23.35;;;11.30;;
75362;SDS011;64122;51.988;5.892;2023-11-21T00:42:50;24.08;;;9.85;;
75362;SDS011;64122;51.988;5.892;2023-11-21T00:45:19;24.88;;;10.50;;
75362;SDS011;64122;51.988;5.892;2023-11-21T00:47:49;25.67;;;10.82;;
75362;SDS011;64122;51.988;5.892;2023-11-21T00:50:18;25.83;;;10.27;;
75362;SDS011;64122;51.988;5.892;2023-11-21T00:52:50;22.02;;;10.52;;
75362;SDS011;64122;51.988;5.892;2023-11-21T00:55:20;24.85;;;11.25;;
75362;SDS011;64122;51.988;5.892;2023-11-21T00:57:50;23.08;;;9.82;;
75362;SDS011;64122;51.988;5.892;2023-11-21T01:00:19;20.67;;;9.95;;
75362;SDS011;64122;51.988;5.892;2023-11-21T01:02:49;24.98;;;10.35;;
75362;SDS011;64122;51.988;5.892;2023-11-21T01:05:18;23.10;;;9.43;;
75362;SDS011;64122;51.988;5.892;2023-11-21T01:07:50;22.98;;;10.52;;
75362;SDS011;64122;51.988;5.892;2023-11-21T01:10:20;28.42;;;11.40;;
75362;SDS011;64122;51.988;5.892;2023-11-21T01:12:49;23.40;;;10.13;;
75362;SDS011;64122;51.988;5.892;2023-11-21T01:15:18;29.30;;;11.95;;
75362;SDS011;64122;51.988;5.892;2023-11-21T01:17:47;24.33;;;10.45;;
75362;SDS011;64122;51.988;5.892;2023-11-21T01:20:16;27.73;;;11.20;;
75362;SDS011;64122;51.988;5.892;2023-11-21T01:22:46;27.15;;;10.75;;
75362;SDS011;64122;51.988;5.892;2023-11-21T01:25:19;23.13;;;11.43;;
75362;SDS011;64122;51.988;5.892;2023-11-21T01:27:49;23.23;;;10.77;;
75362;SDS011;64122;51.988;5.892;2023-11-21T01:30:18;28.70;;;10.70;;
75362;SDS011;64122;51.988;5.892;2023-11-21T01:32:47;27.48;;;12.18;;
75362;SDS011;64122;51.988;5.892;2023-11-21T01:35:16;25.95;;;11.15;;
75362;SDS011;64122;51.988;5.892;2023-11-21T01:37:46;23.00;;;11.23;;
75362;SDS011;64122;51.988;5.892;2023-11-21T01:40:15;24.67;;;10.75;;
75362;SDS011;64122;51.988;5.892;2023-11-21T01:42:47;23.20;;;10.63;;
75362;SDS011;64122;51.988;5.892;2023-11-21T01:45:16;23.17;;;11.02;;
75362;SDS011;64122;51.988;5.892;2023-11-21T01:47:45;23.63;;;10.88;;
75362;SDS011;64122;51.988;5.892;2023-11-21T01:50:15;27.90;;;11.80;;
75362;SDS011;64122;51.988;5.892;2023-11-21T01:52:46;27.38;;;11.45;;
75362;SDS011;64122;51.988;5.892;2023-11-21T01:55:16;24.33;;;12.27;;
75362;SDS011;64122;51.988;5.892;2023-11-21T01:57:49;24.27;;;11.25;;
75362;SDS011;64122;51.988;5.892;2023-11-21T02:00:19;27.88;;;11.52;;
75362;SDS011;64122;51.988;5.892;2023-11-21T02:02:49;57.25;;;12.93;;
75362;SDS011;64122;51.988;5.892;2023-11-21T02:05:18;30.10;;;11.45;;
75362;SDS011;64122;51.988;5.892;2023-11-21T02:07:48;47.58;;;12.95;;
75362;SDS011;64122;51.988;5.892;2023-11-21T02:10:18;28.38;;;10.68;;
75362;SDS011;64122;51.988;5.892;2023-11-21T02:12:51;38.97;;;11.80;;
75362;SDS011;64122;51.988;5.892;2023-11-21T02:15:21;30.50;;;11.98;;
75362;SDS011;64122;51.988;5.892;2023-11-21T02:17:54;24.30;;;11.60;;
75362;SDS011;64122;51.988;5.892;2023-11-21T02:20:24;26.40;;;11.13;;
75362;SDS011;64122;51.988;5.892;2023-11-21T02:22:58;53.95;;;13.90;;
75362;SDS011;64122;51.988;5.892;2023-11-21T02:25:28;38.85;;;11.73;;
75362;SDS011;64122;51.988;5.892;2023-11-21T02:27:59;35.13;;;12.68;;
75362;SDS011;64122;51.988;5.892;2023-11-21T02:30:30;50.65;;;11.25;;
75362;SDS011;64122;51.988;5.892;2023-11-21T02:32:59;65.72;;;13.07;;
75362;SDS011;64122;51.988;5.892;2023-11-21T02:35:29;103.22;;;15.27;;
75362;SDS011;64122;51.988;5.892;2023-11-21T02:38:01;87.22;;;13.00;;
75362;SDS011;64122;51.988;5.892;2023-11-21T02:40:30;61.78;;;11.98;;
75362;SDS011;64122;51.988;5.892;2023-11-21T02:42:59;81.68;;;13.98;;
75362;SDS011;64122;51.988;5.892;2023-11-21T02:45:28;47.03;;;12.00;;
75362;SDS011;64122;51.988;5.892;2023-11-21T02:47:57;62.72;;;13.07;;
75362;SDS011;64122;51.988;5.892;2023-11-21T02:50:26;75.55;;;13.68;;
75362;SDS011;64122;51.988;5.892;2023-11-21T02:52:56;71.20;;;15.05;;
75362;SDS011;64122;51.988;5.892;2023-11-21T02:55:28;130.73;;;16.05;;
75362;SDS011;64122;51.988;5.892;2023-11-21T02:58:00;72.47;;;13.75;;
75362;SDS011;64122;51.988;5.892;2023-11-21T03:00:29;80.65;;;14.73;;
75362;SDS011;64122;51.988;5.892;2023-11-21T03:02:59;79.82;;;13.23;;
75362;SDS011;64122;51.988;5.892;2023-11-21T03:05:30;72.68;;;13.65;;
75362;SDS011;64122;51.988;5.892;2023-11-21T03:08:01;88.28;;;14.23;;
75362;SDS011;64122;51.988;5.892;2023-11-21T03:10:33;72.63;;;13.35;;
75362;SDS011;64122;51.988;5.892;2023-11-21T03:13:03;67.53;;;13.40;;
75362;SDS011;64122;51.988;5.892;2023-11-21T03:15:32;48.70;;;13.48;;
75362;SDS011;64122;51.988;5.892;2023-11-21T03:18:02;57.70;;;14.20;;
75362;SDS011;64122;51.988;5.892;2023-11-21T03:20:31;49.67;;;12.20;;
75362;SDS011;64122;51.988;5.892;2023-11-21T03:23:00;42.40;;;11.40;;
75362;SDS011;64122;51.988;5.892;2023-11-21T03:25:33;62.65;;;13.73;;
75362;SDS011;64122;51.988;5.892;2023-11-21T03:28:02;46.05;;;12.10;;
75362;SDS011;64122;51.988;5.892;2023-11-21T03:30:32;46.92;;;14.00;;
75362;SDS011;64122;51.988;5.892;2023-11-21T03:33:02;39.25;;;12.88;;
75362;SDS011;64122;51.988;5.892;2023-11-21T03:35:31;38.30;;;14.13;;
75362;SDS011;64122;51.988;5.892;2023-11-21T03:38:00;36.30;;;13.75;;
75362;SDS011;64122;51.988;5.892;2023-11-21T03:40:32;32.45;;;12.77;;
75362;SDS011;64122;51.988;5.892;2023-11-21T03:43:02;27.40;;;11.73;;
75362;SDS011;64122;51.988;5.892;2023-11-21T03:45:31;25.67;;;12.40;;
75362;SDS011;64122;51.988;5.892;2023-11-21T03:48:01;29.70;;;12.30;;
75362;SDS011;64122;51.988;5.892;2023-11-21T03:50:30;22.92;;;11.10;;
75362;SDS011;64122;51.988;5.892;2023-11-21T03:52:59;26.33;;;12.43;;
75362;SDS011;64122;51.988;5.892;2023-11-21T03:55:29;24.27;;;11.80;;
75362;SDS011;64122;51.988;5.892;2023-11-21T03:58:01;23.73;;;11.45;;
75362;SDS011;64122;51.988;5.892;2023-11-21T04:00:30;20.17;;;10.98;;
75362;SDS011;64122;51.988;5.892;2023-11-21T04:03:00;23.92;;;10.70;;
75362;SDS011;64122;51.988;5.892;2023-11-21T04:05:29;23.75;;;11.40;;
75362;SDS011;64122;51.988;5.892;2023-11-21T04:07:58;25.33;;;11.75;;
75362;SDS011;64122;51.988;5.892;2023-11-21T04:10:27;23.48;;;11.18;;
75362;SDS011;64122;51.988;5.892;2023-11-21T04:12:56;25.60;;;12.38;;
75362;SDS011;64122;51.988;5.892;2023-11-21T04:15:28;22.77;;;11.35;;
75362;SDS011;64122;51.988;5.892;2023-11-21T04:17:57;25.00;;;12.00;;
75362;SDS011;64122;51.988;5.892;2023-11-21T04:20:27;22.27;;;12.05;;
75362;SDS011;64122;51.988;5.892;2023-11-21T04:22:56;23.60;;;11.20;;
75362;SDS011;64122;51.988;5.892;2023-11-21T04:25:25;26.40;;;11.05;;
75362;SDS011;64122;51.988;5.892;2023-11-21T04:27:55;25.48;;;10.70;;
75362;SDS011;64122;51.988;5.892;2023-11-21T04:30:24;26.15;;;11.02;;
75362;SDS011;64122;51.988;5.892;2023-11-21T04:32:55;49.70;;;12.05;;
75362;SDS011;64122;51.988;5.892;2023-11-21T04:35:25;45.95;;;11.27;;
75362;SDS011;64122;51.988;5.892;2023-11-21T04:37:54;28.85;;;11.63;;
75362;SDS011;64122;51.988;5.892;2023-11-21T04:40:23;22.05;;;10.32;;
75362;SDS011;64122;51.988;5.892;2023-11-21T04:42:52;26.20;;;10.00;;
75362;SDS011;64122;51.988;5.892;2023-11-21T04:45:23;22.77;;;9.60;;
75362;SDS011;64122;51.988;5.892;2023-11-21T04:47:52;23.58;;;11.57;;
75362;SDS011;64122;51.988;5.892;2023-11-21T04:50:24;28.33;;;10.57;;
75362;SDS011;64122;51.988;5.892;2023-11-21T04:52:54;37.97;;;10.65;;
75362;SDS011;64122;51.988;5.892;2023-11-21T04:55:23;20.75;;;10.60;;
75362;SDS011;64122;51.988;5.892;2023-11-21T04:57:53;19.45;;;9.27;;
75362;SDS011;64122;51.988;5.892;2023-11-21T05:00:23;22.20;;;9.80;;
75362;SDS011;64122;51.988;5.892;2023-11-21T05:02:52;18.98;;;10.13;;
75362;SDS011;64122;51.988;5.892;2023-11-21T05:05:23;18.88;;;10.18;;
75362;SDS011;64122;51.988;5.892;2023-11-21T05:07:53;18.65;;;9.18;;
75362;SDS011;64122;51.988;5.892;2023-11-21T05:10:22;17.92;;;9.23;;
75362;SDS011;64122;51.988;5.892;2023-11-21T05:12:51;13.82;;;7.75;;
75362;SDS011;64122;51.988;5.892;2023-11-21T05:15:21;16.13;;;8.32;;
75362;SDS011;64122;51.988;5.892;2023-11-21T05:17:50;20.63;;;8.65;;
75362;SDS011;64122;51.988;5.892;2023-11-21T05:20:20;15.43;;;8.43;;
75362;SDS011;64122;51.988;5.892;2023-11-21T05:22:52;18.42;;;9.07;;
75362;SDS011;64122;51.988;5.892;2023-11-21T05:25:21;16.17;;;8.15;;
75362;SDS011;64122;51.988;5.892;2023-11-21T05:27:51;15.82;;;7.45;;
75362;SDS011;64122;51.988;5.892;2023-11-21T05:30:20;16.73;;;8.82;;
75362;SDS011;64122;51.988;5.892;2023-11-21T05:32:50;13.73;;;8.02;;
75362;SDS011;64122;51.988;5.892;2023-11-21T05:35:19;14.00;;;7.55;;
75362;SDS011;64122;51.988;5.892;2023-11-21T05:37:51;16.15;;;7.85;;
75362;SDS011;64122;51.988;5.892;2023-11-21T05:40:20;17.30;;;7.80;;
75362;SDS011;64122;51.988;5.892;2023-11-21T05:42:52;14.43;;;7.80;;
75362;SDS011;64122;51.988;5.892;2023-11-21T05:45:21;15.45;;;8.13;;
75362;SDS011;64122;51.988;5.892;2023-11-21T05:47:51;14.38;;;7.93;;
75362;SDS011;64122;51.988;5.892;2023-11-21T05:50:21;14.82;;;7.68;;
75362;SDS011;64122;51.988;5.892;2023-11-21T05:52:53;14.93;;;7.70;;
75362;SDS011;64122;51.988;5.892;2023-11-21T05:55:23;16.92;;;8.25;;
75362;SDS011;64122;51.988;5.892;2023-11-21T05:57:53;21.05;;;10.10;;
75362;SDS011;64122;51.988;5.892;2023-11-21T06:00:22;15.93;;;8.82;;
75362;SDS011;64122;51.988;5.892;2023-11-21T06:02:53;18.15;;;9.13;;
75362;SDS011;64122;51.988;5.892;2023-11-21T06:05:23;20.83;;;9.02;;
75362;SDS011;64122;51.988;5.892;2023-11-21T06:07:56;19.38;;;9.48;;
75362;SDS011;64122;51.988;5.892;2023-11-21T06:10:26;20.05;;;10.07;;
75362;SDS011;64122;51.988;5.892;2023-11-21T06:12:56;19.65;;;9.38;;
75362;SDS011;64122;51.988;5.892;2023-11-21T06:15:25;22.38;;;9.23;;
75362;SDS011;64122;51.988;5.892;2023-11-21T06:17:54;18.90;;;9.90;;
75362;SDS011;64122;51.988;5.892;2023-11-21T06:20:24;19.13;;;9.43;;
75362;SDS011;64122;51.988;5.892;2023-11-21T06:22:53;19.17;;;8.77;;
75362;SDS011;64122;51.988;5.892;2023-11-21T06:25:29;16.15;;;8.57;;
75362;SDS011;64122;51.988;5.892;2023-11-21T06:27:59;20.50;;;9.75;;
75362;SDS011;64122;51.988;5.892;2023-11-21T06:30:28;16.40;;;8.48;;
75362;SDS011;64122;51.988;5.892;2023-11-21T06:32:57;17.30;;;8.63;;
75362;SDS011;64122;51.988;5.892;2023-11-21T06:35:26;18.98;;;9.82;;
75362;SDS011;64122;51.988;5.892;2023-11-21T06:38:01;17.90;;;9.00;;
75362;SDS011;64122;51.988;5.892;2023-11-21T06:40:30;21.48;;;10.07;;
75362;SDS011;64122;51.988;5.892;2023-11-21T06:43:00;14.90;;;7.80;;
75362;SDS011;64122;51.988;5.892;2023-11-21T06:45:30;17.35;;;8.70;;
75362;SDS011;64122;51.988;5.892;2023-11-21T06:47:59;23.88;;;9.23;;
75362;SDS011;64122;51.988;5.892;2023-11-21T06:50:29;23.58;;;9.90;;
75362;SDS011;64122;51.988;5.892;2023-11-21T06:52:58;16.80;;;8.82;;
75362;SDS011;64122;51.988;5.892;2023-11-21T06:55:32;18.45;;;8.75;;
75362;SDS011;64122;51.988;5.892;2023-11-21T06:58:01;18.83;;;9.38;;
75362;SDS011;64122;51.988;5.892;2023-11-21T07:00:31;18.98;;;9.93;;
75362;SDS011;64122;51.988;5.892;2023-11-21T07:03:00;22.45;;;11.82;;
75362;SDS011;64122;51.988;5.892;2023-11-21T07:05:29;20.85;;;9.90;;
75362;SDS011;64122;51.988;5.892;2023-11-21T07:08:01;18.25;;;9.98;;
75362;SDS011;64122;51.988;5.892;2023-11-21T07:10:30;18.45;;;9.45;;
75362;SDS011;64122;51.988;5.892;2023-11-21T07:13:00;21.30;;;9.75;;
75362;SDS011;64122;51.988;5.892;2023-11-21T07:15:29;19.38;;;10.25;;
75362;SDS011;64122;51.988;5.892;2023-11-21T07:17:59;21.83;;;10.75;;
75362;SDS011;64122;51.988;5.892;2023-11-21T07:20:29;24.63;;;9.57;;
75362;SDS011;64122;51.988;5.892;2023-11-21T07:23:01;18.80;;;10.25;;
75362;SDS011;64122;51.988;5.892;2023-11-21T07:25:31;23.00;;;10.82;;
75362;SDS011;64122;51.988;5.892;2023-11-21T07:28:00;22.58;;;11.60;;
75362;SDS011;64122;51.988;5.892;2023-11-21T07:30:31;20.60;;;10.15;;
75362;SDS011;64122;51.988;5.892;2023-11-21T07:33:00;26.55;;;10.43;;
75362;SDS011;64122;51.988;5.892;2023-11-21T07:35:30;18.90;;;10.13;;
75362;SDS011;64122;51.988;5.892;2023-11-21T07:38:02;20.85;;;9.75;;
75362;SDS011;64122;51.988;5.892;2023-11-21T07:40:32;20.30;;;10.25;;
75362;SDS011;64122;51.988;5.892;2023-11-21T07:43:01;18.38;;;10.38;;
75362;SDS011;64122;51.988;5.892;2023-11-21T07:45:31;30.00;;;12.40;;
75362;SDS011;64122;51.988;5.892;2023-11-21T07:48:00;20.00;;;9.57;;
75362;SDS011;64122;51.988;5.892;2023-11-21T07:50:30;24.63;;;11.50;;
75362;SDS011;64122;51.988;5.892;2023-11-21T07:53:02;21.02;;;10.85;;
75362;SDS011;64122;51.988;5.892;2023-11-21T07:55:31;23.25;;;10.65;;
75362;SDS011;64122;51.988;5.892;2023-11-21T07:58:02;22.05;;;10.35;;
75362;SDS011;64122;51.988;5.892;2023-11-21T08:00:31;21.00;;;10.23;;
75362;SDS011;64122;51.988;5.892;2023-11-21T08:03:00;22.35;;;11.23;;
75362;SDS011;64122;51.988;5.892;2023-11-21T08:05:29;22.13;;;11.63;;
75362;SDS011;64122;51.988;5.892;2023-11-21T08:07:58;21.92;;;10.40;;
75362;SDS011;64122;51.988;5.892;2023-11-21T08:10:30;21.45;;;10.95;;
75362;SDS011;64122;51.988;5.892;2023-11-21T08:13:01;24.20;;;10.23;;
75362;SDS011;64122;51.988;5.892;2023-11-21T08:15:30;24.63;;;10.25;;
75362;SDS011;64122;51.988;5.892;2023-11-21T08:18:00;21.77;;;10.02;;
75362;SDS011;64122;51.988;5.892;2023-11-21T08:20:29;21.17;;;9.80;;
75362;SDS011;64122;51.988;5.892;2023-11-21T08:22:58;26.08;;;11.98;;
75362;SDS011;64122;51.988;5.892;2023-11-21T08:25:31;23.90;;;11.27;;
75362;SDS011;64122;51.988;5.892;2023-11-21T08:28:00;21.83;;;10.52;;
75362;SDS011;64122;51.988;5.892;2023-11-21T08:30:31;24.25;;;11.10;;
75362;SDS011;64122;51.988;5.892;2023-11-21T08:33:00;22.80;;;10.65;;
75362;SDS011;64122;51.988;5.892;2023-11-21T08:35:30;25.00;;;11.02;;
75362;SDS011;64122;51.988;5.892;2023-11-21T08:38:00;28.55;;;13.40;;
75362;SDS011;64122;51.988;5.892;2023-11-21T08:40:32;27.02;;;11.93;;
75362;SDS011;64122;51.988;5.892;2023-11-21T08:43:01;23.30;;;10.93;;
75362;SDS011;64122;51.988;5.892;2023-11-21T08:45:30;28.40;;;11.52;;
75362;SDS011;64122;51.988;5.892;2023-11-21T08:48:00;30.02;;;11.05;;
75362;SDS011;64122;51.988;5.892;2023-11-21T08:50:29;25.98;;;12.43;;
75362;SDS011;64122;51.988;5.892;2023-11-21T08:52:58;28.63;;;11.85;;
75362;SDS011;64122;51.988;5.892;2023-11-21T08:55:27;27.67;;;12.30;;
75362;SDS011;64122;51.988;5.892;2023-11-21T08:57:59;29.00;;;12.07;;
75362;SDS011;64122;51.988;5.892;2023-11-21T09:00:31;27.08;;;12.38;;
75362;SDS011;64122;51.988;5.892;2023-11-21T09:03:00;31.77;;;12.63;;
75362;SDS011;64122;51.988;5.892;2023-11-21T09:05:37;29.17;;;12.13;;
75362;SDS011;64122;51.988;5.892;2023-11-21T09:08:07;33.28;;;12.65;;
75362;SDS011;64122;51.988;5.892;2023-11-21T09:10:36;26.60;;;12.77;;
75362;SDS011;64122;51.988;5.892;2023-11-21T09:13:08;30.75;;;11.70;;
75362;SDS011;64122;51.988;5.892;2023-11-21T09:15:38;27.30;;;11.88;;
75362;SDS011;64122;51.988;5.892;2023-11-21T09:18:07;31.08;;;12.25;;
75362;SDS011;64122;51.988;5.892;2023-11-21T09:20:36;33.15;;;12.23;;
75362;SDS011;64122;51.988;5.892;2023-11-21T09:23:06;39.53;;;13.05;;
75362;SDS011;64122;51.988;5.892;2023-11-21T09:25:35;37.38;;;12.57;;
75362;SDS011;64122;51.988;5.892;2023-11-21T09:28:07;42.78;;;14.45;;
75362;SDS011;64122;51.988;5.892;2023-11-21T09:30:37;33.53;;;12.55;;
75362;SDS011;64122;51.988;5.892;2023-11-21T09:33:06;56.40;;;14.40;;
75362;SDS011;64122;51.988;5.892;2023-11-21T09:35:36;84.68;;;14.93;;
75362;SDS011;64122;51.988;5.892;2023-11-21T09:38:06;66.90;;;14.18;;
75362;SDS011;64122;51.988;5.892;2023-11-21T09:40:36;56.63;;;14.30;;
75362;SDS011;64122;51.988;5.892;2023-11-21T09:43:09;41.55;;;13.18;;
75362;SDS011;64122;51.988;5.892;2023-11-21T09:45:45;36.00;;;12.75;;
75362;SDS011;64122;51.988;5.892;2023-11-21T09:48:16;44.63;;;12.65;;
75362;SDS011;64122;51.988;5.892;2023-11-21T09:50:46;36.35;;;15.20;;
75362;SDS011;64122;51.988;5.892;2023-11-21T09:53:16;47.53;;;14.02;;
75362;SDS011;64122;51.988;5.892;2023-11-21T09:55:48;45.13;;;13.60;;
75362;SDS011;64122;51.988;5.892;2023-11-21T09:58:21;48.67;;;12.75;;
75362;SDS011;64122;51.988;5.892;2023-11-21T10:00:53;50.63;;;12.25;;
75362;SDS011;64122;51.988;5.892;2023-11-21T10:05:52;38.28;;;12.38;;
75362;SDS011;64122;51.988;5.892;2023-11-21T10:08:23;32.30;;;12.43;;
75362;SDS011;64122;51.988;5.892;2023-11-21T10:10:53;21.45;;;10.55;;
75362;SDS011;64122;51.988;5.892;2023-11-21T10:13:27;19.25;;;10.65;;
75362;SDS011;64122;51.988;5.892;2023-11-21T10:16:00;22.55;;;10.43;;
75362;SDS011;64122;51.988;5.892;2023-11-21T10:18:31;23.13;;;12.60;;
75362;SDS011;64122;51.988;5.892;2023-11-21T10:21:04;19.88;;;10.48;;
75362;SDS011;64122;51.988;5.892;2023-11-21T10:23:35;19.00;;;9.20;;
75362;SDS011;64122;51.988;5.892;2023-11-21T10:26:04;17.45;;;8.95;;
75362;SDS011;64122;51.988;5.892;2023-11-21T10:28:44;14.27;;;7.10;;
75362;SDS011;64122;51.988;5.892;2023-11-21T10:31:24;16.92;;;7.20;;
75362;SDS011;64122;51.988;5.892;2023-11-21T10:33:56;19.23;;;9.00;;
75362;SDS011;64122;51.988;5.892;2023-11-21T10:36:39;12.73;;;6.38;;
75362;SDS011;64122;51.988;5.892;2023-11-21T10:39:08;13.07;;;6.65;;
75362;SDS011;64122;51.988;5.892;2023-11-21T10:41:38;14.63;;;7.38;;
75362;SDS011;64122;51.988;5.892;2023-11-21T10:44:10;13.40;;;6.60;;
75362;SDS011;64122;51.988;5.892;2023-11-21T10:46:46;15.23;;;6.40;;
75362;SDS011;64122;51.988;5.892;2023-11-21T10:49:17;19.80;;;9.85;;
75362;SDS011;64122;51.988;5.892;2023-11-21T10:51:47;11.45;;;6.10;;
75362;SDS011;64122;51.988;5.892;2023-11-21T10:54:19;12.02;;;5.97;;
75362;SDS011;64122;51.988;5.892;2023-11-21T10:56:49;13.82;;;6.63;;
75362;SDS011;64122;51.988;5.892;2023-11-21T10:59:24;17.15;;;8.57;;
75362;SDS011;64122;51.988;5.892;2023-11-21T11:01:57;19.48;;;7.50;;
75362;SDS011;64122;51.988;5.892;2023-11-21T11:04:28;12.82;;;5.97;;
75362;SDS011;64122;51.988;5.892;2023-11-21T11:07:02;14.10;;;6.88;;
75362;SDS011;64122;51.988;5.892;2023-11-21T11:09:35;15.23;;;7.47;;
75362;SDS011;64122;51.988;5.892;2023-11-21T11:12:04;12.68;;;6.28;;
75362;SDS011;64122;51.988;5.892;2023-11-21T11:14:38;13.77;;;7.90;;
75362;SDS011;64122;51.988;5.892;2023-11-21T11:17:10;14.90;;;6.18;;
75362;SDS011;64122;51.988;5.892;2023-11-21T11:19:41;17.55;;;8.82;;
75362;SDS011;64122;51.988;5.892;2023-11-21T11:22:15;16.52;;;7.63;;
75362;SDS011;64122;51.988;5.892;2023-11-21T11:25:03;15.90;;;7.65;;
75362;SDS011;64122;51.988;5.892;2023-11-21T11:27:48;23.15;;;11.80;;
75362;SDS011;64122;51.988;5.892;2023-11-21T11:33:21;15.27;;;6.38;;
75362;SDS011;64122;51.988;5.892;2023-11-21T11:36:02;14.18;;;6.15;;
75362;SDS011;64122;51.988;5.892;2023-11-21T11:38:34;14.20;;;6.80;;
75362;SDS011;64122;51.988;5.892;2023-11-21T11:41:04;14.60;;;6.93;;
75362;SDS011;64122;51.988;5.892;2023-11-21T11:43:36;19.67;;;7.78;;
75362;SDS011;64122;51.988;5.892;2023-11-21T11:46:12;17.45;;;8.32;;
75362;SDS011;64122;51.988;5.892;2023-11-21T11:48:41;15.98;;;8.45;;
75362;SDS011;64122;51.988;5.892;2023-11-21T11:51:11;17.65;;;8.32;;
75362;SDS011;64122;51.988;5.892;2023-11-21T11:53:43;15.70;;;7.13;;
75362;SDS011;64122;51.988;5.892;2023-11-21T11:56:25;14.90;;;7.13;;
75362;SDS011;64122;51.988;5.892;2023-11-21T11:58:57;15.00;;;7.15;;
75362;SDS011;64122;51.988;5.892;2023-11-21T12:01:31;16.52;;;8.88;;
75362;SDS011;64122;51.988;5.892;2023-11-21T12:07:04;10.60;;;5.53;;
75362;SDS011;64122;51.988;5.892;2023-11-21T12:09:34;11.75;;;5.63;;
75362;SDS011;64122;51.988;5.892;2023-11-21T12:12:06;13.00;;;5.70;;
75362;SDS011;64122;51.988;5.892;2023-11-21T12:14:36;8.55;;;4.40;;
75362;SDS011;64122;51.988;5.892;2023-11-21T12:17:08;9.35;;;4.28;;
75362;SDS011;64122;51.988;5.892;2023-11-21T12:19:38;10.75;;;6.07;;
75362;SDS011;64122;51.988;5.892;2023-11-21T12:22:08;9.48;;;4.40;;
75362;SDS011;64122;51.988;5.892;2023-11-21T12:24:37;10.07;;;5.07;;
75362;SDS011;64122;51.988;5.892;2023-11-21T12:27:06;15.25;;;6.68;;
75362;SDS011;64122;51.988;5.892;2023-11-21T12:29:35;15.18;;;7.05;;
75362;SDS011;64122;51.988;5.892;2023-11-21T12:32:05;15.10;;;7.60;;
75362;SDS011;64122;51.988;5.892;2023-11-21T12:34:37;12.90;;;6.20;;
75362;SDS011;64122;51.988;5.892;2023-11-21T12:37:06;26.50;;;12.73;;
75362;SDS011;64122;51.988;5.892;2023-11-21T12:39:36;14.45;;;7.15;;
75362;SDS011;64122;51.988;5.892;2023-11-21T12:42:05;19.75;;;9.70;;
75362;SDS011;64122;51.988;5.892;2023-11-21T12:44:34;32.92;;;15.48;;
75362;SDS011;64122;51.988;5.892;2023-11-21T12:47:07;12.85;;;6.03;;
75362;SDS011;64122;51.988;5.892;2023-11-21T12:49:41;13.32;;;6.20;;
75362;SDS011;64122;51.988;5.892;2023-11-21T12:52:10;13.07;;;6.18;;
75362;SDS011;64122;51.988;5.892;2023-11-21T12:54:40;12.05;;;5.85;;
75362;SDS011;64122;51.988;5.892;2023-11-21T12:57:09;12.75;;;5.60;;
75362;SDS011;64122;51.988;5.892;2023-11-21T12:59:38;16.48;;;7.50;;
75362;SDS011;64122;51.988;5.892;2023-11-21T13:02:09;15.32;;;7.80;;
75362;SDS011;64122;51.988;5.892;2023-11-21T13:04:44;17.92;;;8.95;;
75362;SDS011;64122;51.988;5.892;2023-11-21T13:07:22;15.65;;;7.95;;
75362;SDS011;64122;51.988;5.892;2023-11-21T13:09:53;22.25;;;11.65;;
75362;SDS011;64122;51.988;5.892;2023-11-21T13:12:23;16.67;;;8.48;;
75362;SDS011;64122;51.988;5.892;2023-11-21T13:14:52;17.58;;;9.15;;
75362;SDS011;64122;51.988;5.892;2023-11-21T13:17:22;19.05;;;9.13;;
75362;SDS011;64122;51.988;5.892;2023-11-21T13:19:53;15.50;;;7.75;;
75362;SDS011;64122;51.988;5.892;2023-11-21T13:22:23;20.00;;;10.23;;
75362;SDS011;64122;51.988;5.892;2023-11-21T13:24:53;16.95;;;8.93;;
75362;SDS011;64122;51.988;5.892;2023-11-21T13:27:23;15.40;;;7.97;;
75362;SDS011;64122;51.988;5.892;2023-11-21T13:29:52;16.95;;;8.50;;
75362;SDS011;64122;51.988;5.892;2023-11-21T13:32:21;15.82;;;7.78;;
75362;SDS011;64122;51.988;5.892;2023-11-21T13:34:54;19.15;;;9.40;;
75362;SDS011;64122;51.988;5.892;2023-11-21T13:37:24;17.02;;;8.32;;
75362;SDS011;64122;51.988;5.892;2023-11-21T13:39:56;17.65;;;9.18;;
75362;SDS011;64122;51.988;5.892;2023-11-21T13:42:25;15.60;;;8.10;;
75362;SDS011;64122;51.988;5.892;2023-11-21T13:44:56;18.42;;;8.77;;
75362;SDS011;64122;51.988;5.892;2023-11-21T13:47:25;13.43;;;6.18;;
75362;SDS011;64122;51.988;5.892;2023-11-21T13:49:59;17.83;;;8.68;;
75362;SDS011;64122;51.988;5.892;2023-11-21T13:52:28;16.58;;;8.90;;
75362;SDS011;64122;51.988;5.892;2023-11-21T13:54:59;17.13;;;7.72;;
75362;SDS011;64122;51.988;5.892;2023-11-21T14:00:02;15.77;;;7.85;;
75362;SDS011;64122;51.988;5.892;2023-11-21T14:02:36;14.55;;;6.97;;
75362;SDS011;64122;51.988;5.892;2023-11-21T14:05:10;12.95;;;6.07;;
75362;SDS011;64122;51.988;5.892;2023-11-21T14:07:40;12.48;;;5.25;;
75362;SDS011;64122;51.988;5.892;2023-11-21T14:10:13;13.63;;;5.82;;
75362;SDS011;64122;51.988;5.892;2023-11-21T14:12:47;15.75;;;6.05;;
75362;SDS011;64122;51.988;5.892;2023-11-21T14:15:16;16.15;;;6.55;;
75362;SDS011;64122;51.988;5.892;2023-11-21T14:17:46;17.65;;;7.80;;
75362;SDS011;64122;51.988;5.892;2023-11-21T14:20:18;14.57;;;6.35;;
75362;SDS011;64122;51.988;5.892;2023-11-21T14:22:48;15.25;;;6.45;;
75362;SDS011;64122;51.988;5.892;2023-11-21T14:25:17;17.58;;;7.63;;
75362;SDS011;64122;51.988;5.892;2023-11-21T14:27:48;15.52;;;7.43;;
75362;SDS011;64122;51.988;5.892;2023-11-21T14:30:17;15.35;;;6.95;;
75362;SDS011;64122;51.988;5.892;2023-11-21T14:32:48;16.10;;;7.43;;
75362;SDS011;64122;51.988;5.892;2023-11-21T14:35:20;17.05;;;6.75;;
75362;SDS011;64122;51.988;5.892;2023-11-21T14:37:49;17.05;;;7.00;;
75362;SDS011;64122;51.988;5.892;2023-11-21T14:40:18;13.80;;;6.53;;
75362;SDS011;64122;51.988;5.892;2023-11-21T14:42:50;14.98;;;7.50;;
75362;SDS011;64122;51.988;5.892;2023-11-21T14:45:18;13.45;;;6.28;;
75362;SDS011;64122;51.988;5.892;2023-11-21T14:47:51;15.43;;;6.90;;
75362;SDS011;64122;51.988;5.892;2023-11-21T14:50:35;14.82;;;7.65;;
75362;SDS011;64122;51.988;5.892;2023-11-21T14:53:19;16.60;;;6.53;;
75362;SDS011;64122;51.988;5.892;2023-11-21T14:56:09;16.23;;;7.38;;
75362;SDS011;64122;51.988;5.892;2023-11-21T14:58:36;17.00;;;7.28;;